sensor_id;sensor_type;location;lat;lon;timestamp;temperature;humidity
33645;DHT22;19986;48.190;16.366;2023-02-23T00:00:27;11.10;99.90
33645;DHT22;19986;48.190;16.366;2023-02-23T00:02:55;11.20;99.90
33645;DHT22;19986;48.190;16.366;2023-02-23T00:05:24;11.20;99.90
33645;DHT22;19986;48.190;16.366;2023-02-23T00:07:51;11.20;99.90
33645;DHT22;19986;48.190;16.366;2023-02-23T00:10:17;11.10;99.90
33645;DHT22;19986;48.190;16.366;2023-02-23T00:12:46;11.20;99.90
33645;DHT22;19986;48.190;16.366;2023-02-23T00:15:14;11.20;99.90
33645;DHT22;19986;48.190;16.366;2023-02-23T00:17:40;11.20;99.90
33645;DHT22;19986;48.190;16.366;2023-02-23T00:20:09;11.20;99.90
33645;DHT22;19986;48.190;16.366;2023-02-23T00:22:38;11.20;99.90
33645;DHT22;19986;48.190;16.366;2023-02-23T00:25:09;11.00;99.90
33645;DHT22;19986;48.190;16.366;2023-02-23T00:27:36;11.00;99.90
33645;DHT22;19986;48.190;16.366;2023-02-23T00:30:10;11.00;99.90
33645;DHT22;19986;48.190;16.366;2023-02-23T00:32:37;10.90;99.90
33645;DHT22;19986;48.190;16.366;2023-02-23T00:35:03;11.00;99.90
33645;DHT22;19986;48.190;16.366;2023-02-23T00:37:29;11.00;99.90
33645;DHT22;19986;48.190;16.366;2023-02-23T00:39:55;11.10;99.90
33645;DHT22;19986;48.190;16.366;2023-02-23T00:42:22;11.10;99.90
33645;DHT22;19986;48.190;16.366;2023-02-23T00:44:49;11.10;99.90
33645;DHT22;19986;48.190;16.366;2023-02-23T00:47:15;11.10;99.90
33645;DHT22;19986;48.190;16.366;2023-02-23T00:49:40;11.00;99.90
33645;DHT22;19986;48.190;16.366;2023-02-23T00:52:10;11.10;99.90
33645;DHT22;19986;48.190;16.366;2023-02-23T00:54:36;11.10;99.90
33645;DHT22;19986;48.190;16.366;2023-02-23T00:57:02;11.00;99.90
33645;DHT22;19986;48.190;16.366;2023-02-23T00:59:28;11.00;99.90
33645;DHT22;19986;48.190;16.366;2023-02-23T01:01:54;10.90;99.90
33645;DHT22;19986;48.190;16.366;2023-02-23T01:04:21;10.90;99.90
33645;DHT22;19986;48.190;16.366;2023-02-23T01:07:05;10.90;99.90
33645;DHT22;19986;48.190;16.366;2023-02-23T01:09:32;10.90;99.90
33645;DHT22;19986;48.190;16.366;2023-02-23T01:11:58;10.90;99.90
33645;DHT22;19986;48.190;16.366;2023-02-23T01:14:28;10.90;99.90
33645;DHT22;19986;48.190;16.366;2023-02-23T01:16:54;10.90;99.90
33645;DHT22;19986;48.190;16.366;2023-02-23T01:19:20;10.90;99.90
33645;DHT22;19986;48.190;16.366;2023-02-23T01:21:46;10.90;99.90
33645;DHT22;19986;48.190;16.366;2023-02-23T01:24:12;10.90;99.90
33645;DHT22;19986;48.190;16.366;2023-02-23T01:26:42;10.80;99.90
33645;DHT22;19986;48.190;16.366;2023-02-23T01:29:11;10.90;99.90
33645;DHT22;19986;48.190;16.366;2023-02-23T01:31:39;10.90;99.90
33645;DHT22;19986;48.190;16.366;2023-02-23T01:34:06;10.80;99.90
33645;DHT22;19986;48.190;16.366;2023-02-23T01:36:35;10.90;99.90
33645;DHT22;19986;48.190;16.366;2023-02-23T01:39:02;10.90;99.90
33645;DHT22;19986;48.190;16.366;2023-02-23T01:41:30;10.90;99.90
33645;DHT22;19986;48.190;16.366;2023-02-23T01:46:35;10.90;99.90
33645;DHT22;19986;48.190;16.366;2023-02-23T01:49:15;10.90;99.90
33645;DHT22;19986;48.190;16.366;2023-02-23T01:51:47;10.90;99.90
33645;DHT22;19986;48.190;16.366;2023-02-23T01:54:18;10.80;99.90
33645;DHT22;19986;48.190;16.366;2023-02-23T01:56:49;10.80;99.90
33645;DHT22;19986;48.190;16.366;2023-02-23T01:59:35;10.80;99.90
33645;DHT22;19986;48.190;16.366;2023-02-23T02:02:03;10.80;99.90
33645;DHT22;19986;48.190;16.366;2023-02-23T02:04:37;10.70;99.90
33645;DHT22;19986;48.190;16.366;2023-02-23T02:07:17;10.70;99.90
33645;DHT22;19986;48.190;16.366;2023-02-23T02:09:44;10.70;99.90
33645;DHT22;19986;48.190;16.366;2023-02-23T02:12:32;10.70;99.90
33645;DHT22;19986;48.190;16.366;2023-02-23T02:14:59;10.70;99.90
33645;DHT22;19986;48.190;16.366;2023-02-23T02:25:39;10.60;99.90
33645;DHT22;19986;48.190;16.366;2023-02-23T02:33:36;10.50;99.90
33645;DHT22;19986;48.190;16.366;2023-02-23T02:45:11;10.60;99.90
33645;DHT22;19986;48.190;16.366;2023-02-23T02:47:46;10.60;99.90
33645;DHT22;19986;48.190;16.366;2023-02-23T02:50:28;10.60;99.90
33645;DHT22;19986;48.190;16.366;2023-02-23T02:53:06;10.60;99.90
33645;DHT22;19986;48.190;16.366;2023-02-23T02:55:34;10.60;99.90
33645;DHT22;19986;48.190;16.366;2023-02-23T02:58:04;10.50;99.90
33645;DHT22;19986;48.190;16.366;2023-02-23T03:00:50;10.50;99.90
33645;DHT22;19986;48.190;16.366;2023-02-23T03:03:41;10.50;99.90
33645;DHT22;19986;48.190;16.366;2023-02-23T03:15:59;10.50;99.90
33645;DHT22;19986;48.190;16.366;2023-02-23T03:18:48;10.50;99.90
33645;DHT22;19986;48.190;16.366;2023-02-23T03:22:31;10.50;99.90
33645;DHT22;19986;48.190;16.366;2023-02-23T03:24:55;10.40;99.90
33645;DHT22;19986;48.190;16.366;2023-02-23T03:27:42;10.40;99.90
33645;DHT22;19986;48.190;16.366;2023-02-23T03:30:36;10.40;99.90
33645;DHT22;19986;48.190;16.366;2023-02-23T03:33:43;10.40;99.90
33645;DHT22;19986;48.190;16.366;2023-02-23T03:36:33;10.50;99.90
33645;DHT22;19986;48.190;16.366;2023-02-23T03:42:15;10.50;99.90
33645;DHT22;19986;48.190;16.366;2023-02-23T03:45:08;10.50;99.90
33645;DHT22;19986;48.190;16.366;2023-02-23T03:47:54;10.50;99.90
33645;DHT22;19986;48.190;16.366;2023-02-23T03:50:46;10.50;99.90
33645;DHT22;19986;48.190;16.366;2023-02-23T03:53:42;10.50;99.90
33645;DHT22;19986;48.190;16.366;2023-02-23T03:56:31;10.50;99.90
33645;DHT22;19986;48.190;16.366;2023-02-23T03:59:17;10.50;99.90
33645;DHT22;19986;48.190;16.366;2023-02-23T04:02:06;10.40;99.90
33645;DHT22;19986;48.190;16.366;2023-02-23T04:04:55;10.40;99.90
33645;DHT22;19986;48.190;16.366;2023-02-23T04:07:41;10.40;99.90
33645;DHT22;19986;48.190;16.366;2023-02-23T04:10:29;10.40;99.90
33645;DHT22;19986;48.190;16.366;2023-02-23T04:13:17;10.40;99.90
33645;DHT22;19986;48.190;16.366;2023-02-23T04:15:49;10.40;99.90
33645;DHT22;19986;48.190;16.366;2023-02-23T04:18:24;10.50;99.90
33645;DHT22;19986;48.190;16.366;2023-02-23T04:20:50;10.50;99.90
33645;DHT22;19986;48.190;16.366;2023-02-23T04:23:17;10.40;99.90
33645;DHT22;19986;48.190;16.366;2023-02-23T04:25:44;10.40;99.90
33645;DHT22;19986;48.190;16.366;2023-02-23T04:28:10;10.50;99.90
33645;DHT22;19986;48.190;16.366;2023-02-23T04:30:36;10.50;99.90
33645;DHT22;19986;48.190;16.366;2023-02-23T04:33:02;10.50;99.90
33645;DHT22;19986;48.190;16.366;2023-02-23T04:35:28;10.50;99.90
33645;DHT22;19986;48.190;16.366;2023-02-23T04:37:56;10.50;99.90
33645;DHT22;19986;48.190;16.366;2023-02-23T04:40:22;10.40;99.90
33645;DHT22;19986;48.190;16.366;2023-02-23T04:42:48;10.30;99.90
33645;DHT22;19986;48.190;16.366;2023-02-23T04:45:14;10.20;99.90
33645;DHT22;19986;48.190;16.366;2023-02-23T04:47:40;10.20;99.90
33645;DHT22;19986;48.190;16.366;2023-02-23T04:50:06;10.20;99.90
33645;DHT22;19986;48.190;16.366;2023-02-23T04:52:32;10.10;99.90
33645;DHT22;19986;48.190;16.366;2023-02-23T04:55:00;10.10;99.90
33645;DHT22;19986;48.190;16.366;2023-02-23T04:57:26;10.10;99.90
33645;DHT22;19986;48.190;16.366;2023-02-23T04:59:52;10.00;99.90
33645;DHT22;19986;48.190;16.366;2023-02-23T05:02:18;10.10;99.90
33645;DHT22;19986;48.190;16.366;2023-02-23T05:04:44;10.10;99.90
33645;DHT22;19986;48.190;16.366;2023-02-23T05:07:09;10.10;99.90
33645;DHT22;19986;48.190;16.366;2023-02-23T05:09:35;10.10;99.90
33645;DHT22;19986;48.190;16.366;2023-02-23T05:12:01;10.00;99.90
33645;DHT22;19986;48.190;16.366;2023-02-23T05:14:27;10.10;99.90
33645;DHT22;19986;48.190;16.366;2023-02-23T05:16:53;10.00;99.90
33645;DHT22;19986;48.190;16.366;2023-02-23T05:19:22;10.00;99.90
33645;DHT22;19986;48.190;16.366;2023-02-23T05:21:48;10.00;99.90
33645;DHT22;19986;48.190;16.366;2023-02-23T05:24:16;10.00;99.90
33645;DHT22;19986;48.190;16.366;2023-02-23T05:26:42;10.00;99.90
33645;DHT22;19986;48.190;16.366;2023-02-23T05:29:10;10.00;99.90
33645;DHT22;19986;48.190;16.366;2023-02-23T05:31:35;10.00;99.90
33645;DHT22;19986;48.190;16.366;2023-02-23T05:34:01;10.00;99.90
33645;DHT22;19986;48.190;16.366;2023-02-23T05:36:27;10.00;99.90
33645;DHT22;19986;48.190;16.366;2023-02-23T05:38:53;10.00;99.90
33645;DHT22;19986;48.190;16.366;2023-02-23T05:41:21;10.00;99.90
33645;DHT22;19986;48.190;16.366;2023-02-23T05:43:48;10.00;99.90
33645;DHT22;19986;48.190;16.366;2023-02-23T05:46:19;10.00;99.90
33645;DHT22;19986;48.190;16.366;2023-02-23T05:48:46;10.00;99.90
33645;DHT22;19986;48.190;16.366;2023-02-23T05:51:14;10.00;99.90
33645;DHT22;19986;48.190;16.366;2023-02-23T05:53:40;10.00;99.90
33645;DHT22;19986;48.190;16.366;2023-02-23T05:56:10;10.00;99.90
33645;DHT22;19986;48.190;16.366;2023-02-23T05:58:37;10.10;99.90
33645;DHT22;19986;48.190;16.366;2023-02-23T06:01:03;10.20;99.90
33645;DHT22;19986;48.190;16.366;2023-02-23T06:03:30;10.20;99.90
33645;DHT22;19986;48.190;16.366;2023-02-23T06:05:57;10.20;99.90
33645;DHT22;19986;48.190;16.366;2023-02-23T06:08:24;10.20;99.90
33645;DHT22;19986;48.190;16.366;2023-02-23T06:10:51;10.20;99.90
33645;DHT22;19986;48.190;16.366;2023-02-23T06:13:17;10.20;99.90
33645;DHT22;19986;48.190;16.366;2023-02-23T06:15:43;10.20;99.90
33645;DHT22;19986;48.190;16.366;2023-02-23T06:18:09;10.30;99.90
33645;DHT22;19986;48.190;16.366;2023-02-23T06:20:36;10.30;99.90
33645;DHT22;19986;48.190;16.366;2023-02-23T06:23:03;10.30;99.90
33645;DHT22;19986;48.190;16.366;2023-02-23T06:25:29;10.30;99.90
33645;DHT22;19986;48.190;16.366;2023-02-23T06:27:56;10.30;99.90
33645;DHT22;19986;48.190;16.366;2023-02-23T06:30:22;10.30;99.90
33645;DHT22;19986;48.190;16.366;2023-02-23T06:32:48;10.20;99.90
33645;DHT22;19986;48.190;16.366;2023-02-23T06:35:14;10.20;99.90
33645;DHT22;19986;48.190;16.366;2023-02-23T06:37:40;10.20;99.90
33645;DHT22;19986;48.190;16.366;2023-02-23T06:40:06;10.10;99.90
33645;DHT22;19986;48.190;16.366;2023-02-23T06:42:32;10.10;99.90
33645;DHT22;19986;48.190;16.366;2023-02-23T06:45:01;10.10;99.90
33645;DHT22;19986;48.190;16.366;2023-02-23T06:47:27;10.10;99.90
33645;DHT22;19986;48.190;16.366;2023-02-23T06:49:53;10.20;99.90
33645;DHT22;19986;48.190;16.366;2023-02-23T06:52:19;10.10;99.90
33645;DHT22;19986;48.190;16.366;2023-02-23T06:54:45;10.10;99.90
33645;DHT22;19986;48.190;16.366;2023-02-23T06:57:12;10.10;99.90
33645;DHT22;19986;48.190;16.366;2023-02-23T06:59:39;10.20;99.90
33645;DHT22;19986;48.190;16.366;2023-02-23T07:02:04;10.20;99.90
33645;DHT22;19986;48.190;16.366;2023-02-23T07:04:31;10.20;99.90
33645;DHT22;19986;48.190;16.366;2023-02-23T07:06:57;10.30;99.90
33645;DHT22;19986;48.190;16.366;2023-02-23T07:09:25;10.30;99.90
33645;DHT22;19986;48.190;16.366;2023-02-23T07:11:51;10.30;99.90
33645;DHT22;19986;48.190;16.366;2023-02-23T07:14:17;10.40;99.90
33645;DHT22;19986;48.190;16.366;2023-02-23T07:16:43;10.30;99.90
33645;DHT22;19986;48.190;16.366;2023-02-23T07:19:09;10.30;99.90
33645;DHT22;19986;48.190;16.366;2023-02-23T07:21:35;10.30;99.90
33645;DHT22;19986;48.190;16.366;2023-02-23T07:24:01;10.40;99.90
33645;DHT22;19986;48.190;16.366;2023-02-23T07:26:31;10.50;99.90
33645;DHT22;19986;48.190;16.366;2023-02-23T07:28:59;10.50;99.90
33645;DHT22;19986;48.190;16.366;2023-02-23T07:31:25;10.40;99.90
33645;DHT22;19986;48.190;16.366;2023-02-23T07:33:52;10.50;99.90
33645;DHT22;19986;48.190;16.366;2023-02-23T07:36:22;10.60;99.90
33645;DHT22;19986;48.190;16.366;2023-02-23T07:38:48;10.70;99.90
33645;DHT22;19986;48.190;16.366;2023-02-23T07:41:14;10.70;99.90
33645;DHT22;19986;48.190;16.366;2023-02-23T07:43:39;10.80;99.90
33645;DHT22;19986;48.190;16.366;2023-02-23T07:46:06;10.80;99.90
33645;DHT22;19986;48.190;16.366;2023-02-23T07:48:33;10.90;99.90
33645;DHT22;19986;48.190;16.366;2023-02-23T07:50:59;11.00;99.90
33645;DHT22;19986;48.190;16.366;2023-02-23T07:53:25;11.10;99.90
33645;DHT22;19986;48.190;16.366;2023-02-23T07:55:59;11.20;99.90
33645;DHT22;19986;48.190;16.366;2023-02-23T07:58:28;11.40;99.90
33645;DHT22;19986;48.190;16.366;2023-02-23T08:00:55;11.40;99.90
33645;DHT22;19986;48.190;16.366;2023-02-23T08:03:21;11.50;99.90
33645;DHT22;19986;48.190;16.366;2023-02-23T08:05:47;11.50;99.90
33645;DHT22;19986;48.190;16.366;2023-02-23T08:08:13;11.50;99.90
33645;DHT22;19986;48.190;16.366;2023-02-23T08:10:39;11.50;99.90
33645;DHT22;19986;48.190;16.366;2023-02-23T08:13:05;11.50;99.90
33645;DHT22;19986;48.190;16.366;2023-02-23T08:15:31;11.50;99.90
33645;DHT22;19986;48.190;16.366;2023-02-23T08:17:57;11.60;99.90
33645;DHT22;19986;48.190;16.366;2023-02-23T08:20:25;11.60;99.90
33645;DHT22;19986;48.190;16.366;2023-02-23T08:23:01;11.70;99.90
33645;DHT22;19986;48.190;16.366;2023-02-23T08:25:27;11.90;99.90
33645;DHT22;19986;48.190;16.366;2023-02-23T08:27:53;12.10;99.90
33645;DHT22;19986;48.190;16.366;2023-02-23T08:30:23;12.00;99.90
33645;DHT22;19986;48.190;16.366;2023-02-23T08:32:49;12.10;99.90
33645;DHT22;19986;48.190;16.366;2023-02-23T08:35:16;12.20;99.90
33645;DHT22;19986;48.190;16.366;2023-02-23T08:37:43;12.20;99.90
33645;DHT22;19986;48.190;16.366;2023-02-23T08:40:11;12.30;99.90
33645;DHT22;19986;48.190;16.366;2023-02-23T08:42:43;12.40;99.90
33645;DHT22;19986;48.190;16.366;2023-02-23T08:45:10;12.30;99.90
33645;DHT22;19986;48.190;16.366;2023-02-23T08:47:36;12.40;99.90
33645;DHT22;19986;48.190;16.366;2023-02-23T08:50:03;12.50;99.90
33645;DHT22;19986;48.190;16.366;2023-02-23T08:52:30;12.60;99.90
33645;DHT22;19986;48.190;16.366;2023-02-23T08:54:56;12.50;99.90
33645;DHT22;19986;48.190;16.366;2023-02-23T08:57:23;12.30;99.90
33645;DHT22;19986;48.190;16.366;2023-02-23T08:59:50;12.40;99.90
33645;DHT22;19986;48.190;16.366;2023-02-23T09:02:16;12.30;99.90
33645;DHT22;19986;48.190;16.366;2023-02-23T09:04:42;12.30;99.90
33645;DHT22;19986;48.190;16.366;2023-02-23T09:07:13;12.40;99.90
33645;DHT22;19986;48.190;16.366;2023-02-23T09:09:39;12.50;99.90
33645;DHT22;19986;48.190;16.366;2023-02-23T09:12:07;12.70;99.90
33645;DHT22;19986;48.190;16.366;2023-02-23T09:14:33;12.60;99.90
33645;DHT22;19986;48.190;16.366;2023-02-23T09:17:00;12.70;99.90
33645;DHT22;19986;48.190;16.366;2023-02-23T09:19:26;12.90;99.90
33645;DHT22;19986;48.190;16.366;2023-02-23T09:21:52;13.00;99.90
33645;DHT22;19986;48.190;16.366;2023-02-23T09:24:20;13.10;99.90
33645;DHT22;19986;48.190;16.366;2023-02-23T09:26:47;13.20;99.90
33645;DHT22;19986;48.190;16.366;2023-02-23T09:29:13;13.30;99.90
33645;DHT22;19986;48.190;16.366;2023-02-23T09:31:39;13.40;99.90
33645;DHT22;19986;48.190;16.366;2023-02-23T09:34:05;13.40;99.90
33645;DHT22;19986;48.190;16.366;2023-02-23T09:36:33;13.50;99.90
33645;DHT22;19986;48.190;16.366;2023-02-23T09:38:59;13.50;99.90
33645;DHT22;19986;48.190;16.366;2023-02-23T09:47:23;13.40;99.90
33645;DHT22;19986;48.190;16.366;2023-02-23T09:49:51;13.20;99.90
33645;DHT22;19986;48.190;16.366;2023-02-23T09:52:24;13.20;99.90
33645;DHT22;19986;48.190;16.366;2023-02-23T09:54:51;13.20;99.90
33645;DHT22;19986;48.190;16.366;2023-02-23T09:57:21;13.30;99.90
33645;DHT22;19986;48.190;16.366;2023-02-23T09:59:50;13.50;99.90
33645;DHT22;19986;48.190;16.366;2023-02-23T10:02:37;13.60;99.90
33645;DHT22;19986;48.190;16.366;2023-02-23T10:05:06;13.70;99.90
33645;DHT22;19986;48.190;16.366;2023-02-23T10:10:49;13.70;99.90
33645;DHT22;19986;48.190;16.366;2023-02-23T10:18:53;14.00;99.90
33645;DHT22;19986;48.190;16.366;2023-02-23T10:21:43;14.00;99.90
33645;DHT22;19986;48.190;16.366;2023-02-23T10:24:31;14.10;99.90
33645;DHT22;19986;48.190;16.366;2023-02-23T10:27:04;14.10;99.90
33645;DHT22;19986;48.190;16.366;2023-02-23T10:29:38;14.20;99.90
33645;DHT22;19986;48.190;16.366;2023-02-23T10:35:15;14.20;99.90
33645;DHT22;19986;48.190;16.366;2023-02-23T10:37:41;14.10;99.90
33645;DHT22;19986;48.190;16.366;2023-02-23T10:40:23;14.00;99.90
33645;DHT22;19986;48.190;16.366;2023-02-23T10:42:50;14.00;99.90
33645;DHT22;19986;48.190;16.366;2023-02-23T10:45:22;14.00;99.90
33645;DHT22;19986;48.190;16.366;2023-02-23T10:48:04;14.00;99.90
33645;DHT22;19986;48.190;16.366;2023-02-23T10:50:32;13.90;99.90
33645;DHT22;19986;48.190;16.366;2023-02-23T10:53:03;14.00;99.90
33645;DHT22;19986;48.190;16.366;2023-02-23T10:55:34;14.20;99.90
33645;DHT22;19986;48.190;16.366;2023-02-23T11:00:39;14.30;99.90
33645;DHT22;19986;48.190;16.366;2023-02-23T11:03:23;14.30;99.90
33645;DHT22;19986;48.190;16.366;2023-02-23T11:05:50;14.40;99.90
33645;DHT22;19986;48.190;16.366;2023-02-23T11:11:01;14.30;99.90
33645;DHT22;19986;48.190;16.366;2023-02-23T11:13:39;14.30;99.90
33645;DHT22;19986;48.190;16.366;2023-02-23T11:16:07;14.30;99.90
33645;DHT22;19986;48.190;16.366;2023-02-23T11:18:35;14.30;99.90
33645;DHT22;19986;48.190;16.366;2023-02-23T11:21:02;14.30;99.90
33645;DHT22;19986;48.190;16.366;2023-02-23T11:23:34;14.20;99.90
33645;DHT22;19986;48.190;16.366;2023-02-23T11:26:03;14.20;99.90
33645;DHT22;19986;48.190;16.366;2023-02-23T11:28:36;14.30;99.90
33645;DHT22;19986;48.190;16.366;2023-02-23T11:31:20;14.60;99.90
33645;DHT22;19986;48.190;16.366;2023-02-23T11:33:48;14.90;99.90
33645;DHT22;19986;48.190;16.366;2023-02-23T11:36:24;15.20;99.90
33645;DHT22;19986;48.190;16.366;2023-02-23T11:41:32;15.80;99.90
33645;DHT22;19986;48.190;16.366;2023-02-23T11:44:00;15.80;99.90
33645;DHT22;19986;48.190;16.366;2023-02-23T11:46:30;15.90;99.90
33645;DHT22;19986;48.190;16.366;2023-02-23T11:49:05;16.00;99.90
33645;DHT22;19986;48.190;16.366;2023-02-23T11:51:37;15.80;99.90
33645;DHT22;19986;48.190;16.366;2023-02-23T11:54:06;15.80;99.90
33645;DHT22;19986;48.190;16.366;2023-02-23T11:56:35;15.80;99.90
33645;DHT22;19986;48.190;16.366;2023-02-23T11:59:05;15.90;99.90
33645;DHT22;19986;48.190;16.366;2023-02-23T12:01:49;16.10;99.90
33645;DHT22;19986;48.190;16.366;2023-02-23T12:04:38;16.40;99.90
33645;DHT22;19986;48.190;16.366;2023-02-23T12:10:28;16.40;99.90
33645;DHT22;19986;48.190;16.366;2023-02-23T12:16:17;16.40;99.90
33645;DHT22;19986;48.190;16.366;2023-02-23T12:21:43;16.30;99.90
33645;DHT22;19986;48.190;16.366;2023-02-23T12:24:27;16.30;99.90
33645;DHT22;19986;48.190;16.366;2023-02-23T12:27:18;16.30;99.90
33645;DHT22;19986;48.190;16.366;2023-02-23T12:35:59;15.90;99.90
33645;DHT22;19986;48.190;16.366;2023-02-23T12:38:55;15.80;99.90
33645;DHT22;19986;48.190;16.366;2023-02-23T12:44:04;15.90;99.90
33645;DHT22;19986;48.190;16.366;2023-02-23T12:46:46;15.80;99.90
33645;DHT22;19986;48.190;16.366;2023-02-23T12:49:40;15.80;99.90
33645;DHT22;19986;48.190;16.366;2023-02-23T12:52:10;15.90;99.90
33645;DHT22;19986;48.190;16.366;2023-02-23T12:54:40;15.90;99.90
33645;DHT22;19986;48.190;16.366;2023-02-23T12:58:02;15.90;99.90
33645;DHT22;19986;48.190;16.366;2023-02-23T13:16:34;15.90;99.90
33645;DHT22;19986;48.190;16.366;2023-02-23T13:21:56;15.80;99.90
33645;DHT22;19986;48.190;16.366;2023-02-23T13:24:29;16.00;99.90
33645;DHT22;19986;48.190;16.366;2023-02-23T13:27:25;15.90;99.90
33645;DHT22;19986;48.190;16.366;2023-02-23T13:29:53;15.80;99.90
33645;DHT22;19986;48.190;16.366;2023-02-23T13:32:21;15.90;99.90
33645;DHT22;19986;48.190;16.366;2023-02-23T13:34:58;15.80;99.90
33645;DHT22;19986;48.190;16.366;2023-02-23T13:40:51;15.90;99.90
33645;DHT22;19986;48.190;16.366;2023-02-23T13:43:24;15.90;99.90
33645;DHT22;19986;48.190;16.366;2023-02-23T13:46:16;15.90;99.90
33645;DHT22;19986;48.190;16.366;2023-02-23T13:51:45;15.90;99.90
33645;DHT22;19986;48.190;16.366;2023-02-23T13:56:48;15.90;99.90
33645;DHT22;19986;48.190;16.366;2023-02-23T13:59:23;16.00;99.90
33645;DHT22;19986;48.190;16.366;2023-02-23T14:01:52;16.10;99.90
33645;DHT22;19986;48.190;16.366;2023-02-23T14:04:26;16.20;99.90
33645;DHT22;19986;48.190;16.366;2023-02-23T14:09:34;16.30;99.90
33645;DHT22;19986;48.190;16.366;2023-02-23T14:14:40;16.40;99.90
33645;DHT22;19986;48.190;16.366;2023-02-23T14:19:58;16.60;99.90
33645;DHT22;19986;48.190;16.366;2023-02-23T14:22:25;16.70;99.90
33645;DHT22;19986;48.190;16.366;2023-02-23T14:28:21;16.70;99.90
33645;DHT22;19986;48.190;16.366;2023-02-23T14:30:58;16.70;99.90
33645;DHT22;19986;48.190;16.366;2023-02-23T14:33:34;16.70;99.90
33645;DHT22;19986;48.190;16.366;2023-02-23T14:36:26;16.70;99.90
33645;DHT22;19986;48.190;16.366;2023-02-23T14:39:01;16.60;99.90
33645;DHT22;19986;48.190;16.366;2023-02-23T14:44:30;16.70;99.90
33645;DHT22;19986;48.190;16.366;2023-02-23T14:47:01;16.70;99.90
33645;DHT22;19986;48.190;16.366;2023-02-23T14:49:31;16.70;99.90
33645;DHT22;19986;48.190;16.366;2023-02-23T14:57:39;16.60;99.90
33645;DHT22;19986;48.190;16.366;2023-02-23T15:00:30;16.50;99.90
33645;DHT22;19986;48.190;16.366;2023-02-23T15:03:04;16.50;99.90
33645;DHT22;19986;48.190;16.366;2023-02-23T15:05:33;16.50;99.90
33645;DHT22;19986;48.190;16.366;2023-02-23T15:08:03;16.50;99.90
33645;DHT22;19986;48.190;16.366;2023-02-23T15:10:35;16.60;99.90
33645;DHT22;19986;48.190;16.366;2023-02-23T15:13:37;16.60;99.90
33645;DHT22;19986;48.190;16.366;2023-02-23T15:16:26;16.70;99.90
33645;DHT22;19986;48.190;16.366;2023-02-23T15:21:58;16.70;99.90
33645;DHT22;19986;48.190;16.366;2023-02-23T15:24:27;16.50;99.90
33645;DHT22;19986;48.190;16.366;2023-02-23T15:26:55;16.50;99.90
33645;DHT22;19986;48.190;16.366;2023-02-23T15:29:24;16.50;99.90
33645;DHT22;19986;48.190;16.366;2023-02-23T15:31:53;16.40;99.90
33645;DHT22;19986;48.190;16.366;2023-02-23T15:34:24;16.30;99.90
33645;DHT22;19986;48.190;16.366;2023-02-23T15:37:03;16.20;99.90
33645;DHT22;19986;48.190;16.366;2023-02-23T15:39:47;16.10;99.90
33645;DHT22;19986;48.190;16.366;2023-02-23T15:42:16;16.10;99.90
33645;DHT22;19986;48.190;16.366;2023-02-23T15:44:43;15.90;99.90
33645;DHT22;19986;48.190;16.366;2023-02-23T15:47:22;15.90;99.90
33645;DHT22;19986;48.190;16.366;2023-02-23T15:50:06;16.00;99.90
33645;DHT22;19986;48.190;16.366;2023-02-23T15:52:33;15.90;99.90
33645;DHT22;19986;48.190;16.366;2023-02-23T15:55:07;15.80;99.90
33645;DHT22;19986;48.190;16.366;2023-02-23T15:57:55;15.90;99.90
33645;DHT22;19986;48.190;16.366;2023-02-23T16:00:37;15.80;99.90
33645;DHT22;19986;48.190;16.366;2023-02-23T16:03:06;15.80;99.90
33645;DHT22;19986;48.190;16.366;2023-02-23T16:05:34;15.70;99.90
33645;DHT22;19986;48.190;16.366;2023-02-23T16:08:22;15.70;99.90
33645;DHT22;19986;48.190;16.366;2023-02-23T16:10:53;15.60;99.90
33645;DHT22;19986;48.190;16.366;2023-02-23T16:13:22;15.60;99.90
33645;DHT22;19986;48.190;16.366;2023-02-23T16:15:52;15.50;99.90
33645;DHT22;19986;48.190;16.366;2023-02-23T16:18:21;15.50;99.90
33645;DHT22;19986;48.190;16.366;2023-02-23T16:20:53;15.50;99.90
33645;DHT22;19986;48.190;16.366;2023-02-23T16:23:26;15.50;99.90
33645;DHT22;19986;48.190;16.366;2023-02-23T16:25:59;15.50;99.90
33645;DHT22;19986;48.190;16.366;2023-02-23T16:28:36;15.50;99.90
33645;DHT22;19986;48.190;16.366;2023-02-23T16:31:07;15.50;99.90
33645;DHT22;19986;48.190;16.366;2023-02-23T16:36:11;15.30;99.90
33645;DHT22;19986;48.190;16.366;2023-02-23T16:41:19;15.30;99.90
33645;DHT22;19986;48.190;16.366;2023-02-23T16:43:51;15.30;99.90
33645;DHT22;19986;48.190;16.366;2023-02-23T16:46:18;15.30;99.90
33645;DHT22;19986;48.190;16.366;2023-02-23T16:48:46;15.20;99.90
33645;DHT22;19986;48.190;16.366;2023-02-23T16:51:18;15.20;99.90
33645;DHT22;19986;48.190;16.366;2023-02-23T16:53:45;15.10;99.90
33645;DHT22;19986;48.190;16.366;2023-02-23T16:56:15;15.10;99.90
33645;DHT22;19986;48.190;16.366;2023-02-23T16:58:47;15.00;99.90
33645;DHT22;19986;48.190;16.366;2023-02-23T17:01:15;14.90;99.90
33645;DHT22;19986;48.190;16.366;2023-02-23T17:03:42;14.90;99.90
33645;DHT22;19986;48.190;16.366;2023-02-23T17:06:11;14.90;99.90
33645;DHT22;19986;48.190;16.366;2023-02-23T17:08:37;14.90;99.90
33645;DHT22;19986;48.190;16.366;2023-02-23T17:11:04;14.90;99.90
33645;DHT22;19986;48.190;16.366;2023-02-23T17:13:31;14.80;99.90
33645;DHT22;19986;48.190;16.366;2023-02-23T17:15:59;14.70;99.90
33645;DHT22;19986;48.190;16.366;2023-02-23T17:18:32;14.80;99.90
33645;DHT22;19986;48.190;16.366;2023-02-23T17:21:01;14.70;99.90
33645;DHT22;19986;48.190;16.366;2023-02-23T17:23:29;14.60;99.90
33645;DHT22;19986;48.190;16.366;2023-02-23T17:26:05;14.60;99.90
33645;DHT22;19986;48.190;16.366;2023-02-23T17:28:31;14.50;99.90
33645;DHT22;19986;48.190;16.366;2023-02-23T17:30:57;14.50;99.90
33645;DHT22;19986;48.190;16.366;2023-02-23T17:33:27;14.50;99.90
33645;DHT22;19986;48.190;16.366;2023-02-23T17:36:02;14.50;99.90
33645;DHT22;19986;48.190;16.366;2023-02-23T17:38:28;14.50;99.90
33645;DHT22;19986;48.190;16.366;2023-02-23T17:41:03;14.50;99.90
33645;DHT22;19986;48.190;16.366;2023-02-23T17:43:30;14.50;99.90
33645;DHT22;19986;48.190;16.366;2023-02-23T17:45:57;14.40;99.90
33645;DHT22;19986;48.190;16.366;2023-02-23T17:48:26;14.50;99.90
33645;DHT22;19986;48.190;16.366;2023-02-23T17:50:56;14.40;99.90
33645;DHT22;19986;48.190;16.366;2023-02-23T17:53:24;14.30;99.90
33645;DHT22;19986;48.190;16.366;2023-02-23T17:55:51;14.30;99.90
33645;DHT22;19986;48.190;16.366;2023-02-23T17:58:19;14.30;99.90